Time;durP1;ratioP1;P1;durP2;ratioP2;P2;SDS_P1;SDS_P2;PMS_P1;PMS_P2;Temp;Humidity;BMP_temperature;BMP_pressure;BME280_temperature;BME280_humidity;BME280_pressure;Samples;Min_cycle;Max_cycle;Signal;HPM_P1;HPM_P2
2023/01/22 00:01:31;;;;;;;17.85;8.68;;;;;;;-1.39;100.00;99525.00;5046151;28;20029;-72
2023/01/22 00:03:56;;;;;;;22.45;8.80;;;;;;;-1.35;100.00;99532.66;5038875;28;20045;-71
2023/01/22 00:06:22;;;;;;;19.83;8.60;;;;;;;-1.36;100.00;99530.13;5038347;28;20804;-71
2023/01/22 00:08:48;;;;;;;20.15;9.82;;;;;;;-1.34;100.00;99544.97;5036036;28;20445;-71
2023/01/22 00:11:15;;;;;;;19.45;9.05;;;;;;;-1.30;100.00;99542.09;5052934;28;20029;-72
2023/01/22 00:13:40;;;;;;;19.33;8.63;;;;;;;-1.33;100.00;99544.00;5042889;28;20044;-71
2023/01/22 00:16:06;;;;;;;17.90;9.07;;;;;;;-1.31;100.00;99535.94;5044275;28;20033;-71
2023/01/22 00:18:32;;;;;;;18.85;9.10;;;;;;;-1.42;100.00;99525.22;5047809;28;20075;-72
2023/01/22 00:20:58;;;;;;;18.00;8.70;;;;;;;-1.32;100.00;99526.28;5048244;28;20114;-72
2023/01/22 00:23:24;;;;;;;18.50;8.68;;;;;;;-1.24;100.00;99539.00;5047976;28;20115;-72
2023/01/22 00:25:58;;;;;;;18.05;9.00;;;;;;;-1.20;100.00;99538.69;5036090;28;20120;-71
2023/01/22 00:28:24;;;;;;;19.10;9.40;;;;;;;-1.29;100.00;99509.28;5042883;28;20036;-71
2023/01/22 00:30:59;;;;;;;20.58;9.07;;;;;;;-1.21;100.00;99518.38;5050458;28;20037;-72
2023/01/22 00:33:24;;;;;;;18.60;8.45;;;;;;;-1.13;100.00;99528.44;5047905;28;20025;-72
2023/01/22 00:35:50;;;;;;;21.38;9.07;;;;;;;-1.26;100.00;99506.41;5044995;28;20041;-72
2023/01/22 00:38:15;;;;;;;17.52;8.65;;;;;;;-1.20;100.00;99517.44;5043506;28;20119;-71
2023/01/22 00:40:40;;;;;;;18.05;9.05;;;;;;;-1.33;100.00;99504.19;5042932;28;20561;-71
2023/01/22 00:43:05;;;;;;;18.42;8.60;;;;;;;-1.06;100.00;99510.28;5069420;22;20035;-78
2023/01/22 00:45:32;;;;;;;18.50;9.07;;;;;;;-1.08;100.00;99514.84;5088608;28;20068;-78
2023/01/22 00:47:57;;;;;;;18.05;9.30;;;;;;;-1.09;100.00;99511.34;5089052;28;20021;-78
2023/01/22 00:50:22;;;;;;;17.95;8.57;;;;;;;-1.11;100.00;99511.44;5060194;28;20033;-78
2023/01/22 00:52:48;;;;;;;23.00;9.48;;;;;;;-1.09;100.00;99521.13;5085293;28;20028;-78
2023/01/22 00:55:13;;;;;;;20.40;9.55;;;;;;;-1.19;100.00;99508.50;5071768;28;20017;-75
2023/01/22 00:57:38;;;;;;;20.45;9.85;;;;;;;-1.12;100.00;99520.38;5063300;28;20375;-75
2023/01/22 01:00:04;;;;;;;22.48;9.60;;;;;;;-0.99;100.00;99519.50;5051979;28;20083;-76
2023/01/22 01:02:29;;;;;;;19.27;9.32;;;;;;;-1.06;100.00;99524.38;5074906;28;20016;-76
2023/01/22 01:04:55;;;;;;;18.63;9.60;;;;;;;-1.06;100.00;99515.59;5043506;28;20028;-75
2023/01/22 01:07:21;;;;;;;18.02;8.20;;;;;;;-0.96;100.00;99521.91;5049025;28;20025;-76
2023/01/22 01:09:46;;;;;;;20.70;9.23;;;;;;;-1.07;100.00;99516.53;5030021;28;20028;-76
2023/01/22 01:12:11;;;;;;;17.95;8.75;;;;;;;-1.17;100.00;99508.41;5050563;28;20020;-76
2023/01/22 01:14:37;;;;;;;18.73;8.88;;;;;;;-1.19;100.00;99515.63;5035227;28;20094;-77
2023/01/22 01:17:02;;;;;;;19.80;9.25;;;;;;;-1.17;100.00;99522.50;5053548;28;20029;-75
2023/01/22 01:19:27;;;;;;;20.50;8.40;;;;;;;-1.19;100.00;99511.16;5053693;28;20633;-76
2023/01/22 01:21:53;;;;;;;24.60;9.50;;;;;;;-1.15;100.00;99512.63;5036055;28;20112;-76
2023/01/22 01:24:18;;;;;;;17.25;8.38;;;;;;;-1.17;100.00;99511.91;5033394;28;20037;-76
2023/01/22 01:26:43;;;;;;;18.90;9.15;;;;;;;-1.19;100.00;99499.69;5043975;28;20025;-75
2023/01/22 01:29:10;;;;;;;20.80;9.70;;;;;;;-1.22;100.00;99514.03;5035470;28;20029;-76
2023/01/22 01:31:36;;;;;;;20.48;8.75;;;;;;;-1.25;100.00;99506.28;5031631;28;20033;-76
2023/01/22 01:34:02;;;;;;;17.27;9.07;;;;;;;-1.18;100.00;99520.84;5057746;28;20193;-76
2023/01/22 01:36:28;;;;;;;19.70;9.65;;;;;;;-1.09;100.00;99511.34;5045946;28;20534;-75
2023/01/22 01:38:54;;;;;;;25.67;9.82;;;;;;;-1.12;100.00;99524.84;5037456;28;20462;-75
2023/01/22 01:41:22;;;;;;;17.63;8.63;;;;;;;-1.14;100.00;99519.63;5036340;28;20035;-76
2023/01/22 01:44:11;;;;;;;19.58;8.65;;;;;;;-1.09;100.00;99506.03;5053718;28;20037;-76
2023/01/22 01:47:00;;;;;;;18.60;8.88;;;;;;;-1.15;100.00;99501.19;5055467;28;20579;-75
2023/01/22 01:49:46;;;;;;;23.10;9.68;;;;;;;-1.06;100.00;99510.28;5051689;28;20072;-77
2023/01/22 01:52:13;;;;;;;18.85;8.70;;;;;;;-1.02;100.00;99495.78;5053845;28;20025;-76
2023/01/22 01:54:41;;;;;;;17.60;7.93;;;;;;;-1.11;100.00;99487.53;5053061;28;20047;-76
2023/01/22 01:57:11;;;;;;;18.83;8.98;;;;;;;-1.03;100.00;99508.22;5046623;28;20032;-76
2023/01/22 01:59:37;;;;;;;19.10;9.02;;;;;;;-1.07;100.00;99488.19;5049512;28;20025;-76
2023/01/22 02:02:03;;;;;;;18.52;8.95;;;;;;;-1.07;100.00;99501.47;5043415;28;20033;-76
2023/01/22 02:04:29;;;;;;;19.08;8.43;;;;;;;-1.14;100.00;99486.94;5041414;28;20144;-77
2023/01/22 02:06:55;;;;;;;19.10;8.77;;;;;;;-1.03;100.00;99500.25;5033921;28;20112;-75
2023/01/22 02:09:20;;;;;;;16.95;8.80;;;;;;;-1.05;100.00;99501.34;5052852;28;20024;-76
2023/01/22 02:11:48;;;;;;;17.60;8.80;;;;;;;-1.02;100.00;99507.28;5055253;28;20033;-75
2023/01/22 02:14:19;;;;;;;23.13;8.50;;;;;;;-1.04;100.00;99498.56;5049951;28;20043;-77
2023/01/22 02:16:44;;;;;;;18.33;9.13;;;;;;;-1.04;100.00;99500.38;5042421;28;20075;-76
2023/01/22 02:19:10;;;;;;;18.15;8.43;;;;;;;-1.13;100.00;99496.56;5048682;28;20029;-75
2023/01/22 02:21:36;;;;;;;19.48;8.95;;;;;;;-1.00;100.00;99508.00;5044138;28;20088;-75
2023/01/22 02:24:10;;;;;;;18.52;9.05;;;;;;;-1.08;100.00;99504.22;5029478;28;20021;-75
2023/01/22 02:26:37;;;;;;;18.42;8.07;;;;;;;-1.09;100.00;99490.09;5047178;28;20017;-75
2023/01/22 02:29:04;;;;;;;20.83;9.05;;;;;;;-1.06;100.00;99502.31;5052314;28;20049;-76
2023/01/22 02:31:29;;;;;;;20.77;8.45;;;;;;;-1.10;100.00;99485.75;5050260;28;20111;-75
2023/01/22 02:33:55;;;;;;;17.98;8.48;;;;;;;-1.16;100.00;99495.00;5045421;28;20538;-76
2023/01/22 02:36:20;;;;;;;16.40;8.00;;;;;;;-1.07;100.00;99503.25;5042761;28;20036;-75
2023/01/22 02:38:46;;;;;;;17.80;8.32;;;;;;;-1.02;100.00;99501.97;5037333;28;20398;-75
2023/01/22 02:41:12;;;;;;;17.25;7.97;;;;;;;-0.97;100.00;99499.81;5035836;28;20033;-75
2023/01/22 02:43:37;;;;;;;19.75;8.38;;;;;;;-0.98;100.00;99491.97;5025306;28;20021;-75
2023/01/22 02:46:03;;;;;;;15.73;7.28;;;;;;;-1.04;100.00;99485.28;5049274;28;22086;-75
2023/01/22 02:48:28;;;;;;;19.17;8.65;;;;;;;-1.04;100.00;99487.94;5046440;28;20131;-75
2023/01/22 02:50:53;;;;;;;17.02;8.57;;;;;;;-1.03;100.00;99496.75;5051264;28;20159;-75
2023/01/22 02:53:18;;;;;;;15.85;8.10;;;;;;;-1.06;100.00;99486.38;5053642;28;20031;-75
2023/01/22 02:55:45;;;;;;;18.17;6.95;;;;;;;-0.97;100.00;99507.78;5033094;28;20024;-75
2023/01/22 02:58:11;;;;;;;17.48;8.20;;;;;;;-0.89;100.00;99499.25;5032314;28;20032;-77
2023/01/22 03:00:36;;;;;;;16.50;8.07;;;;;;;-0.96;100.00;99501.50;5037030;28;20585;-75
2023/01/22 03:03:06;;;;;;;16.83;8.25;;;;;;;-1.03;100.00;99488.78;5052406;28;20029;-75
2023/01/22 03:05:34;;;;;;;14.40;7.57;;;;;;;-1.00;100.00;99486.75;5044424;28;20434;-76
2023/01/22 03:08:00;;;;;;;15.30;7.97;;;;;;;-0.90;100.00;99501.06;5046942;28;20031;-76
2023/01/22 03:10:25;;;;;;;16.42;7.22;;;;;;;-1.03;100.00;99483.47;5030906;28;20111;-76
2023/01/22 03:21:18;;;;;;;17.42;7.13;;;;;;;-0.98;100.00;99486.66;5044579;28;20036;-76
2023/01/22 03:23:50;;;;;;;18.02;7.95;;;;;;;-1.01;100.00;99486.88;5031044;28;20452;-77
2023/01/22 03:26:15;;;;;;;15.90;7.75;;;;;;;-1.05;100.00;99488.06;5026662;28;20402;-76
2023/01/22 03:28:41;;;;;;;15.18;7.28;;;;;;;-1.06;100.00;99494.34;5046719;28;20040;-76
2023/01/22 03:31:08;;;;;;;18.83;7.55;;;;;;;-1.13;100.00;99478.88;5023413;28;20029;-76
2023/01/22 03:33:34;;;;;;;20.45;8.68;;;;;;;-1.06;100.00;99489.03;5038871;28;20652;-75
2023/01/22 03:36:02;;;;;;;14.82;7.20;;;;;;;-1.07;100.00;99487.31;5033597;28;20068;-75
2023/01/22 03:38:27;;;;;;;16.77;7.50;;;;;;;-1.05;100.00;99488.06;5052967;28;20548;-75
2023/01/22 03:41:00;;;;;;;16.35;7.97;;;;;;;-1.05;100.00;99498.69;5044542;28;20052;-76
2023/01/22 03:43:25;;;;;;;14.98;7.35;;;;;;;-1.11;100.00;99492.84;5038301;28;20028;-75
2023/01/22 03:45:50;;;;;;;15.07;7.10;;;;;;;-1.02;100.00;99498.44;5021092;28;20037;-76
2023/01/22 03:48:16;;;;;;;17.52;7.53;;;;;;;-1.02;100.00;99495.78;5049666;28;20025;-75
2023/01/22 03:50:41;;;;;;;16.35;7.72;;;;;;;-1.00;100.00;99494.72;5045615;28;20053;-75
2023/01/22 03:53:06;;;;;;;15.73;8.13;;;;;;;-1.06;100.00;99478.41;5035507;28;20108;-75
2023/01/22 03:55:31;;;;;;;17.45;7.05;;;;;;;-1.05;100.00;99490.72;5040139;28;20029;-75
2023/01/22 03:57:57;;;;;;;15.48;7.07;;;;;;;-1.07;100.00;99487.31;5032043;28;20029;-75
2023/01/22 04:00:22;;;;;;;15.88;7.60;;;;;;;-1.04;100.00;99489.78;5051456;28;20526;-75
2023/01/22 04:02:48;;;;;;;15.10;7.50;;;;;;;-1.04;100.00;99487.13;5055303;28;20075;-75
2023/01/22 04:05:13;;;;;;;15.80;7.28;;;;;;;-0.96;100.00;99500.66;5036642;28;20032;-76
2023/01/22 04:07:39;;;;;;;15.75;8.27;;;;;;;-1.01;100.00;99492.19;5053232;28;20025;-76
2023/01/22 04:10:04;;;;;;;17.20;7.88;;;;;;;-0.97;100.00;99485.69;5038989;28;20030;-75
2023/01/22 04:12:30;;;;;;;15.10;7.85;;;;;;;-1.03;100.00;99494.09;5045242;28;20104;-75
2023/01/22 04:14:55;;;;;;;18.40;8.32;;;;;;;-1.13;100.00;99481.53;5053660;28;20021;-76
2023/01/22 04:17:20;;;;;;;16.63;7.55;;;;;;;-1.04;100.00;99508.34;5046517;28;20025;-75
2023/01/22 04:19:45;;;;;;;14.77;7.30;;;;;;;-1.08;100.00;99496.25;5043571;28;20025;-75
2023/01/22 04:22:11;;;;;;;16.70;7.13;;;;;;;-1.13;100.00;99492.16;5055459;28;20032;-75
2023/01/22 04:24:36;;;;;;;18.05;7.60;;;;;;;-1.21;100.00;99485.66;5055316;28;20520;-75
2023/01/22 04:27:01;;;;;;;16.27;8.27;;;;;;;-1.19;100.00;99481.94;5040326;28;20111;-76
2023/01/22 04:29:27;;;;;;;14.73;7.72;;;;;;;-1.22;100.00;99491.97;5036473;28;20115;-75
2023/01/22 04:31:52;;;;;;;15.70;7.60;;;;;;;-1.21;100.00;99499.78;5037509;28;20395;-75
2023/01/22 04:34:18;;;;;;;18.23;8.60;;;;;;;-1.18;100.00;99512.88;5037652;28;20389;-75
2023/01/22 04:36:43;;;;;;;15.73;7.68;;;;;;;-1.14;100.00;99511.66;5045736;28;20078;-75
2023/01/22 04:39:08;;;;;;;17.92;8.27;;;;;;;-1.19;100.00;99497.03;5050647;28;20036;-75
2023/01/22 04:41:33;;;;;;;18.13;8.52;;;;;;;-1.14;100.00;99508.16;5050327;28;20077;-75
2023/01/22 04:43:59;;;;;;;18.48;8.40;;;;;;;-1.11;100.00;99516.75;5050681;28;20033;-75
2023/01/22 04:46:24;;;;;;;16.73;8.15;;;;;;;-1.28;100.00;99487.06;5049159;28;20053;-76
2023/01/22 04:48:49;;;;;;;17.25;8.63;;;;;;;-1.12;100.00;99517.72;5036091;28;20035;-75
2023/01/22 04:51:14;;;;;;;18.58;8.45;;;;;;;-1.13;100.00;99508.06;5020430;28;20132;-75
2023/01/22 04:53:40;;;;;;;17.48;7.97;;;;;;;-1.21;100.00;99504.25;5050133;28;20021;-76
2023/01/22 04:56:05;;;;;;;17.10;7.97;;;;;;;-1.05;100.00;99518.09;5042495;28;20030;-75
2023/01/22 04:58:30;;;;;;;16.48;8.13;;;;;;;-0.98;100.00;99523.84;5037060;28;20101;-75
2023/01/22 05:00:56;;;;;;;17.83;7.88;;;;;;;-1.03;100.00;99513.53;5054096;28;20049;-75
2023/01/22 05:03:22;;;;;;;16.60;8.23;;;;;;;-0.99;100.00;99517.69;5054828;28;20052;-74
2023/01/22 05:05:47;;;;;;;14.40;7.85;;;;;;;-1.06;100.00;99494.34;5049995;28;20048;-75
2023/01/22 05:08:12;;;;;;;15.45;7.60;;;;;;;-0.95;100.00;99520.94;5052992;28;20081;-77
2023/01/22 05:10:38;;;;;;;17.52;7.88;;;;;;;-0.88;100.00;99531.00;5056874;28;20028;-75
2023/01/22 05:13:05;;;;;;;14.35;7.32;;;;;;;-0.93;100.00;99522.53;5054049;28;20029;-75
2023/01/22 05:15:30;;;;;;;14.35;7.20;;;;;;;-0.91;100.00;99530.41;5033215;28;20021;-75
2023/01/22 05:17:55;;;;;;;16.85;8.07;;;;;;;-0.96;100.00;99516.59;5050301;28;20366;-75
2023/01/22 05:20:21;;;;;;;18.80;8.93;;;;;;;-1.02;100.00;99517.03;5056322;28;20032;-75
2023/01/22 05:22:47;;;;;;;17.63;8.02;;;;;;;-0.99;100.00;99522.16;5055041;28;20035;-75
2023/01/22 05:25:12;;;;;;;19.48;8.30;;;;;;;-1.00;100.00;99526.59;5033531;28;20028;-75
2023/01/22 05:27:37;;;;;;;17.85;8.35;;;;;;;-0.97;100.00;99537.00;5046513;28;20025;-75
2023/01/22 05:30:04;;;;;;;16.98;8.48;;;;;;;-1.00;100.00;99545.19;5050995;28;20048;-75
2023/01/22 05:32:29;;;;;;;18.77;8.60;;;;;;;-1.02;100.00;99544.47;5054123;28;20021;-75
2023/01/22 05:34:55;;;;;;;18.55;8.93;;;;;;;-1.19;100.00;99532.41;5043863;28;20108;-75
2023/01/22 05:37:20;;;;;;;18.50;8.73;;;;;;;-1.14;100.00;99532.91;5033588;28;20382;-76
2023/01/22 05:39:45;;;;;;;19.85;8.93;;;;;;;-1.19;100.00;99534.22;5033954;28;20021;-76
2023/01/22 05:42:14;;;;;;;23.27;9.35;;;;;;;-1.11;100.00;99543.31;5046348;28;20020;-75
2023/01/22 05:44:39;;;;;;;21.58;10.95;;;;;;;-1.14;100.00;99542.69;5054701;28;20024;-76
2023/01/22 05:47:04;;;;;;;19.27;9.20;;;;;;;-1.27;100.00;99526.78;5034892;28;20512;-75
2023/01/22 05:49:29;;;;;;;20.27;9.80;;;;;;;-1.33;100.00;99544.00;5051396;28;20025;-76
2023/01/22 05:51:55;;;;;;;23.75;10.15;;;;;;;-1.27;100.00;99561.31;5049179;28;20035;-75
2023/01/22 05:54:20;;;;;;;25.40;11.50;;;;;;;-1.39;100.00;99546.25;5054205;28;20086;-76
2023/01/22 05:56:45;;;;;;;23.85;10.45;;;;;;;-1.36;100.00;99549.53;5050146;28;20028;-75
2023/01/22 05:59:11;;;;;;;26.88;11.65;;;;;;;-1.28;100.00;99567.59;5034085;28;20047;-75
2023/01/22 06:01:36;;;;;;;28.00;10.90;;;;;;;-1.25;100.00;99571.81;5036084;28;20032;-75
2023/01/22 06:04:02;;;;;;;25.75;10.95;;;;;;;-1.38;100.00;99554.09;5045894;28;20053;-77
2023/01/22 06:06:27;;;;;;;24.10;10.52;;;;;;;-1.38;100.00;99558.56;5044378;28;20031;-75
2023/01/22 06:08:52;;;;;;;23.45;9.93;;;;;;;-1.23;100.00;99567.22;5047819;28;20021;-76
2023/01/22 06:11:18;;;;;;;23.55;10.57;;;;;;;-1.31;100.00;99562.50;5043143;28;20029;-75
2023/01/22 06:13:44;;;;;;;24.08;10.27;;;;;;;-1.30;100.00;99569.50;5052985;28;20033;-75
2023/01/22 06:16:11;;;;;;;21.90;10.07;;;;;;;-1.18;100.00;99586.34;5046886;28;20505;-75
2023/01/22 06:18:36;;;;;;;26.25;10.40;;;;;;;-1.18;100.00;99584.56;5051482;28;20025;-75
2023/01/22 06:21:04;;;;;;;22.05;10.02;;;;;;;-1.11;100.00;99590.25;5030853;28;20029;-76
2023/01/22 06:23:30;;;;;;;25.90;12.13;;;;;;;-1.04;100.00;99572.94;5031906;28;20052;-75
2023/01/22 06:25:57;;;;;;;24.73;10.70;;;;;;;-1.00;100.00;99578.88;5042979;28;20452;-75
2023/01/22 06:28:23;;;;;;;23.17;10.95;;;;;;;-1.00;100.00;99581.50;5045859;28;20095;-75
2023/01/22 06:30:49;;;;;;;23.88;11.43;;;;;;;-1.03;100.00;99582.59;5022509;28;20017;-75
2023/01/22 06:33:14;;;;;;;25.30;9.90;;;;;;;-1.04;100.00;99578.25;5051354;28;20098;-75
2023/01/22 06:35:40;;;;;;;24.52;10.73;;;;;;;-0.99;100.00;99586.72;5031433;28;20390;-75
2023/01/22 06:38:05;;;;;;;24.27;10.88;;;;;;;-1.01;100.00;99579.84;5032571;28;20056;-76
2023/01/22 06:40:31;;;;;;;22.77;10.23;;;;;;;-1.04;100.00;99558.81;5048812;28;20111;-77
2023/01/22 06:42:56;;;;;;;25.58;10.95;;;;;;;-0.97;100.00;99598.09;5045725;28;20108;-76
2023/01/22 06:45:23;;;;;;;27.08;9.95;;;;;;;-0.97;100.00;99594.56;5088023;22;20109;-74
2023/01/22 06:47:48;;;;;;;23.63;10.50;;;;;;;-1.13;100.00;99569.16;5108054;28;20472;-74
2023/01/22 06:50:14;;;;;;;21.17;10.45;;;;;;;-1.00;100.00;99600.09;5111912;28;20028;-74
2023/01/22 06:52:39;;;;;;;24.40;10.98;;;;;;;-0.97;100.00;99599.88;5098379;28;20400;-73
2023/01/22 06:55:05;;;;;;;23.23;10.65;;;;;;;-0.98;100.00;99593.72;5090027;28;20046;-74
2023/01/22 06:57:30;;;;;;;21.08;10.57;;;;;;;-1.01;100.00;99593.94;5066573;28;20392;-74
2023/01/22 06:59:55;;;;;;;20.27;9.68;;;;;;;-0.91;100.00;99610.09;5074768;28;20023;-71
2023/01/22 07:05:18;;;;;;;20.58;10.25;;;;;;;-0.63;100.00;99608.91;5075355;28;20059;-56
2023/01/22 07:07:44;;;;;;;20.13;9.32;;;;;;;-0.58;100.00;99608.56;5069851;28;20040;-55
2023/01/22 07:10:09;;;;;;;18.70;8.90;;;;;;;-0.76;100.00;99606.31;5073018;28;20434;-56
2023/01/22 07:12:35;;;;;;;20.52;9.25;;;;;;;-0.76;100.00;99605.44;5086711;28;20028;-55
2023/01/22 07:15:01;;;;;;;20.58;9.77;;;;;;;-0.57;100.00;99620.91;5063557;28;20526;-56
2023/01/22 07:17:27;;;;;;;23.48;10.05;;;;;;;-0.51;100.00;99617.81;5074209;28;20031;-55
2023/01/22 07:19:52;;;;;;;22.20;9.82;;;;;;;-0.37;100.00;99622.09;5068482;28;20038;-55
2023/01/22 07:22:18;;;;;;;19.73;9.07;;;;;;;-0.55;100.00;99613.66;5065234;28;20028;-55
2023/01/22 07:24:43;;;;;;;19.90;9.30;;;;;;;-0.49;100.00;99622.03;5068104;28;20092;-55
2023/01/22 07:27:09;;;;;;;18.48;9.70;;;;;;;-0.42;100.00;99610.94;5066814;28;20111;-56
2023/01/22 07:29:34;;;;;;;21.50;10.13;;;;;;;-0.44;100.00;99619.06;5069919;28;20020;-55
2023/01/22 07:31:59;;;;;;;21.77;9.90;;;;;;;-0.34;100.00;99622.72;5066006;28;20539;-56
2023/01/22 07:34:25;;;;;;;20.75;9.32;;;;;;;-0.39;100.00;99622.22;5071593;28;20583;-56
2023/01/22 07:36:50;;;;;;;25.48;11.05;;;;;;;-0.39;100.00;99627.53;5063592;28;20472;-56
2023/01/22 07:39:16;;;;;;;21.02;11.23;;;;;;;-0.40;100.00;99636.47;5062908;28;20027;-56
2023/01/22 07:41:41;;;;;;;23.85;11.27;;;;;;;-0.42;100.00;99627.75;5070847;28;20043;-57
2023/01/22 07:44:07;;;;;;;22.30;10.68;;;;;;;-0.41;100.00;99640.09;5070946;28;20032;-56
2023/01/22 07:46:35;;;;;;;20.02;10.18;;;;;;;-0.40;100.00;99639.13;5071135;28;20443;-56
2023/01/22 07:49:01;;;;;;;22.50;10.52;;;;;;;-0.36;100.00;99637.94;5072719;28;20051;-56
2023/01/22 07:51:26;;;;;;;24.25;11.05;;;;;;;-0.24;100.00;99637.03;5065842;28;20410;-56
2023/01/22 07:53:53;;;;;;;20.17;9.73;;;;;;;-0.15;100.00;99645.28;5069919;28;20031;-56
2023/01/22 07:56:19;;;;;;;19.45;9.07;;;;;;;-0.20;100.00;99644.78;5070208;28;20021;-56
2023/01/22 07:58:45;;;;;;;20.70;9.13;;;;;;;-0.17;100.00;99642.72;5075303;28;20495;-56
2023/01/22 08:01:10;;;;;;;19.85;9.75;;;;;;;-0.06;100.00;99642.78;5071309;28;20113;-56
2023/01/22 08:03:37;;;;;;;22.30;10.40;;;;;;;0.00;100.00;99636.16;5070185;28;20042;-56
2023/01/22 08:06:10;;;;;;;22.02;9.95;;;;;;;0.12;100.00;99637.88;5068020;28;20399;-56
2023/01/22 08:08:36;;;;;;;19.00;9.30;;;;;;;0.31;100.00;99647.97;5066343;28;20024;-56
2023/01/22 08:11:02;;;;;;;19.60;10.27;;;;;;;0.44;100.00;99642.56;5072005;28;20082;-56
2023/01/22 08:13:27;;;;;;;22.85;10.13;;;;;;;0.44;100.00;99643.38;5073896;28;20036;-56
2023/01/22 08:15:56;;;;;;;19.15;9.48;;;;;;;0.53;100.00;99631.22;5077017;28;20047;-56
2023/01/22 08:18:21;;;;;;;18.08;9.10;;;;;;;0.50;100.00;99646.53;5091695;28;20038;-56
2023/01/22 08:20:47;;;;;;;23.38;9.80;;;;;;;0.44;100.00;99642.56;5071045;28;20115;-55
2023/01/22 08:23:13;;;;;;;18.45;8.95;;;;;;;0.54;100.00;99658.66;5073972;28;20471;-55
2023/01/22 08:25:38;;;;;;;19.08;9.00;;;;;;;0.54;100.00;99661.34;5075475;28;20479;-55
2023/01/22 08:28:04;;;;;;;19.00;9.55;;;;;;;0.53;100.00;99651.66;5090549;28;20020;-56
2023/01/22 08:30:34;;;;;;;23.23;10.05;;;;;;;0.52;100.00;99658.78;5066542;28;20400;-56
2023/01/22 08:33:01;;;;;;;20.30;9.18;;;;;;;0.56;100.00;99668.25;5072313;28;20103;-56
2023/01/22 08:35:27;;;;;;;21.77;10.50;;;;;;;0.54;100.00;99662.19;5090481;28;20032;-56
2023/01/22 08:37:53;;;;;;;22.83;10.45;;;;;;;0.69;100.00;99662.81;5074333;28;20031;-56
2023/01/22 08:40:18;;;;;;;22.27;11.00;;;;;;;0.72;100.00;99669.72;5067979;28;20036;-56
2023/01/22 08:42:50;;;;;;;23.20;10.57;;;;;;;0.77;100.00;99660.41;5075401;28;20024;-56
2023/01/22 08:45:15;;;;;;;27.48;12.27;;;;;;;0.77;100.00;99667.56;5063862;28;20055;-56
2023/01/22 08:47:41;;;;;;;22.38;11.30;;;;;;;0.84;100.00;99664.28;5087664;28;20028;-56
2023/01/22 08:50:07;;;;;;;26.52;11.40;;;;;;;0.89;100.00;99669.22;5068986;28;20024;-56
2023/01/22 08:52:32;;;;;;;21.38;10.43;;;;;;;1.00;100.00;99666.59;5082403;28;20024;-56
2023/01/22 08:54:58;;;;;;;21.75;10.90;;;;;;;1.21;100.00;99668.53;5061264;28;20059;-56
2023/01/22 08:57:23;;;;;;;21.25;9.88;;;;;;;1.34;100.00;99669.25;5083339;28;20028;-56
2023/01/22 08:59:48;;;;;;;23.63;10.35;;;;;;;1.46;100.00;99662.06;5085089;28;20039;-56
2023/01/22 09:02:14;;;;;;;18.42;8.98;;;;;;;1.53;100.00;99669.44;5064510;28;20024;-57
2023/01/22 09:04:40;;;;;;;18.58;9.65;;;;;;;1.51;100.00;99668.69;5063744;28;20068;-57
2023/01/22 09:07:06;;;;;;;22.73;10.40;;;;;;;1.48;100.00;99676.13;5062461;28;20432;-57
2023/01/22 09:09:31;;;;;;;20.88;9.85;;;;;;;1.61;100.00;99675.97;5075916;28;20092;-58
2023/01/22 09:11:57;;;;;;;22.52;10.30;;;;;;;1.63;100.00;99674.03;5089372;28;20127;-57
2023/01/22 09:14:22;;;;;;;22.77;9.55;;;;;;;1.49;100.00;99681.34;5074517;28;20020;-57
2023/01/22 09:16:47;;;;;;;20.17;9.18;;;;;;;1.72;100.00;99675.94;5071276;28;20463;-57
2023/01/22 09:19:13;;;;;;;21.58;10.07;;;;;;;1.77;100.00;99679.06;5075542;28;20391;-58
2023/01/22 09:21:39;;;;;;;21.98;9.73;;;;;;;1.75;100.00;99678.34;5081225;28;20035;-58
2023/01/22 09:24:05;;;;;;;22.45;10.35;;;;;;;1.97;100.00;99677.44;5065402;28;20428;-59
2023/01/22 09:26:31;;;;;;;23.45;10.05;;;;;;;1.95;100.00;99680.22;5070289;28;20024;-59
2023/01/22 09:28:59;;;;;;;18.48;9.60;;;;;;;2.15;100.00;99678.59;5071333;28;20084;-59
2023/01/22 09:31:25;;;;;;;18.88;9.07;;;;;;;2.34;100.00;99677.03;5070564;28;20457;-59
2023/01/22 09:33:54;;;;;;;18.88;10.10;;;;;;;2.54;100.00;99678.00;5060537;28;20133;-59
2023/01/22 09:36:20;;;;;;;17.67;9.40;;;;;;;2.74;100.00;99674.47;5071207;28;20051;-58
2023/01/22 09:38:49;;;;;;;19.42;9.55;;;;;;;2.98;100.00;99671.50;5074607;28;20036;-52
2023/01/22 09:41:35;;;;;;;15.30;8.93;;;;;;;3.31;100.00;99669.53;5073439;28;20533;-51
2023/01/22 09:44:15;;;;;;;16.40;8.45;;;;;;;3.82;100.00;99663.16;5065202;28;20040;-56
2023/01/22 09:46:47;;;;;;;16.55;8.80;;;;;;;4.19;100.00;99670.50;5062012;28;20024;-56
2023/01/22 09:49:20;;;;;;;16.35;8.30;;;;;;;4.57;100.00;99664.28;5068253;28;20028;-57
2023/01/22 09:51:57;;;;;;;17.48;8.50;;;;;;;4.97;100.00;99676.59;5063093;28;20035;-57
2023/01/22 09:54:24;;;;;;;16.63;8.77;;;;;;;4.82;100.00;99683.41;5059991;28;20028;-57
2023/01/22 09:56:52;;;;;;;14.88;7.38;;;;;;;4.77;100.00;99678.50;5062947;28;20047;-57
2023/01/22 09:59:25;;;;;;;12.93;7.00;;;;;;;4.86;100.00;99674.09;5063545;28;20032;-58
2023/01/22 10:01:54;;;;;;;12.13;5.97;;;;;;;5.15;100.00;99678.53;5076740;28;20580;-58
2023/01/22 10:04:29;;;;;;;11.43;6.70;;;;;;;4.98;100.00;99681.00;5067521;28;20426;-58
2023/01/22 10:06:58;;;;;;;12.27;6.47;;;;;;;5.22;100.00;99682.31;5072812;28;20364;-59
2023/01/22 10:09:29;;;;;;;12.88;6.95;;;;;;;5.21;100.00;99684.16;5056390;28;20107;-57
2023/01/22 10:11:55;;;;;;;12.68;7.40;;;;;;;4.91;100.00;99677.19;5072376;28;20028;-57
2023/01/22 10:14:25;;;;;;;11.50;7.30;;;;;;;5.11;100.00;99682.47;5063022;28;20061;-57
2023/01/22 10:16:50;;;;;;;11.20;6.40;;;;;;;5.23;100.00;99686.69;5066825;28;20028;-57
2023/01/22 10:19:22;;;;;;;13.32;7.20;;;;;;;5.00;100.00;99681.69;5070452;28;20034;-57
2023/01/22 10:22:13;;;;;;;13.88;6.78;;;;;;;4.99;100.00;99690.72;5064530;28;20032;-57
2023/01/22 10:24:38;;;;;;;10.80;5.95;;;;;;;5.21;100.00;99680.59;5063322;28;20529;-58
2023/01/22 10:27:15;;;;;;;9.68;6.03;;;;;;;4.86;100.00;99683.97;5064231;28;20024;-59
2023/01/22 10:29:44;;;;;;;11.85;5.82;;;;;;;4.76;100.00;99694.72;5062462;28;20031;-60
2023/01/22 10:32:25;;;;;;;9.77;5.68;;;;;;;4.60;100.00;99680.06;5062504;28;20510;-60
2023/01/22 10:35:06;;;;;;;9.68;5.40;;;;;;;4.47;100.00;99692.94;5066434;28;20093;-60
2023/01/22 10:37:43;;;;;;;10.27;5.78;;;;;;;4.39;100.00;99695.47;5065164;28;20020;-60
2023/01/22 10:40:39;;;;;;;10.18;5.68;;;;;;;4.17;100.00;99702.81;5071278;28;20024;-60
2023/01/22 10:43:16;;;;;;;10.88;5.13;;;;;;;4.26;100.00;99694.91;5040326;28;20062;-53
2023/01/22 10:45:58;;;;;;;9.55;5.40;;;;;;;4.16;100.00;99701.09;5071323;28;20101;-53
2023/01/22 10:48:24;;;;;;;10.95;5.50;;;;;;;4.25;100.00;99699.44;5062245;28;20024;-60
2023/01/22 10:51:10;;;;;;;11.82;5.82;;;;;;;4.11;100.00;99708.75;5070380;28;20190;-60
2023/01/22 10:53:38;;;;;;;12.02;5.75;;;;;;;3.76;100.00;99703.03;5061750;28;20024;-60
2023/01/22 10:56:08;;;;;;;10.23;6.07;;;;;;;3.67;100.00;99705.56;5065234;28;20024;-61
2023/01/22 10:58:37;;;;;;;10.65;5.40;;;;;;;3.88;100.00;99700.09;5076664;28;20107;-60
2023/01/22 11:01:25;;;;;;;9.03;5.00;;;;;;;3.65;100.00;99694.13;5068957;28;20381;-68
2023/01/22 11:03:50;;;;;;;9.13;5.25;;;;;;;3.89;100.00;99692.91;5081285;28;20130;-68
2023/01/22 11:06:21;;;;;;;8.48;4.93;;;;;;;3.63;100.00;99689.91;5069128;28;20123;-67
2023/01/22 11:09:14;;;;;;;9.38;5.30;;;;;;;3.54;100.00;99696.94;5070262;28;20020;-68
2023/01/22 11:11:48;;;;;;;9.95;5.60;;;;;;;3.89;100.00;99695.59;5086189;28;20395;-69
2023/01/22 11:14:22;;;;;;;9.68;5.35;;;;;;;4.25;100.00;99691.41;5070600;28;20555;-69
2023/01/22 11:16:50;;;;;;;10.20;5.22;;;;;;;4.53;100.00;99695.06;5063196;28;20039;-68
2023/01/22 11:19:20;;;;;;;10.20;5.00;;;;;;;4.76;100.00;99684.00;5060620;28;20157;-68
2023/01/22 11:21:51;;;;;;;9.10;4.47;;;;;;;5.21;100.00;99692.22;5064568;28;20096;-68
2023/01/22 11:24:22;;;;;;;8.68;5.00;;;;;;;5.26;100.00;99692.59;5066478;28;20519;-69
2023/01/22 11:26:50;;;;;;;9.20;5.10;;;;;;;4.86;100.00;99698.22;5071545;28;20035;-69
2023/01/22 11:29:57;;;;;;;9.10;4.82;;;;;;;4.56;100.00;99699.28;5069395;28;20111;-69
2023/01/22 11:32:25;;;;;;;8.90;4.78;;;;;;;4.60;100.00;99698.00;5047738;28;20127;-68